Home   Weather   USA   Sherman   Past weeks
Flag for USA

Past Weather in Sherman, Texas, USA — Yesterday and Last 2 Weeks

Currently: 72 °F. Sunny. (Weather station: Grayson County Airport, USA). See more current weather

Past Weather in Sherman — Graph

°F

Sherman Temperature Yesterday

Maximum temperature yesterday: 90 °F (at 4:50 pm)
Minimum temperature yesterday: 68 °F (at 6:15 am)
Average temperature yesterday: 78 °F

High & Low Weather Summary for the Past Weeks

 TemperatureHumidityPressure
High93 °F (May 15, 2:50 pm)100% (May 24, 6:50 am)30.29 "Hg (May 24, 6:50 am)
Low54 °F (May 26, 4:35 am)30% (May 26, 2:50 pm)29.54 "Hg (May 20, 2:15 am)
Average72 °F71%29.89 "Hg
* Reported May 14 6:15 am — May 29 6:50 am, Sherman. Weather by CustomWeather, © 2022

Note: Actual official high and low records may vary slightly from our data, if they occured in-between our weather recording intervals... More about our weather records

Sherman Weather History for the Previous 24 Hours

Scroll right to see more
 ConditionsComfort  
Time TempWeatherWind HumidityBarometerVisibility
6:50 am
Sun, May 29
72 °FSunny.13 mph78%29.71 "Hg10 mi
5:55 am72 °FClear.15 mph76%29.69 "Hg10 mi
5:35 am72 °FClear.14 mph76%29.69 "Hg10 mi
5:15 am73 °FClear.16 mph76%29.68 "Hg10 mi
4:55 am73 °FClear.13 mph78%29.69 "Hg10 mi
4:35 am73 °FClear.15 mph77%29.70 "Hg10 mi
4:15 am74 °FClear.14 mph74%29.69 "Hg10 mi
3:35 am74 °FClear.13 mph74%29.71 "Hg10 mi
3:15 am75 °FClear.12 mph73%29.71 "Hg10 mi
2:35 am76 °FClear.14 mph70%29.71 "Hg10 mi
2:15 am76 °FClear.14 mph70%29.72 "Hg10 mi
1:55 am76 °FClear.14 mph71%29.72 "Hg10 mi
1:35 am76 °FClear.15 mph71%29.72 "Hg10 mi
1:15 am77 °FClear.16 mph70%29.72 "Hg10 mi
12:55 am78 °FClear.18 mph69%29.72 "Hg10 mi
12:35 am78 °FClear.18 mph70%29.72 "Hg10 mi
11:55 pm
Sat, May 28
78 °FClear.10 mph70%29.76 "Hg10 mi
11:35 pm77 °FClear.9 mph71%29.75 "Hg10 mi
11:15 pm78 °FClear.7 mph68%29.75 "Hg10 mi
10:55 pm79 °FClear.7 mph65%29.74 "Hg10 mi
10:35 pm80 °FClear.9 mph63%29.74 "Hg10 mi
10:15 pm80 °FClear.10 mph63%29.73 "Hg10 mi
9:55 pm80 °FClear.10 mph60%29.72 "Hg10 mi
9:35 pm81 °FClear.12 mph59%29.72 "Hg10 mi
9:15 pm82 °FClear.10 mph57%29.72 "Hg10 mi
8:35 pm83 °FClear.14 mph53%29.71 "Hg10 mi
8:15 pm84 °FSunny.14 mph51%29.70 "Hg10 mi
7:55 pm85 °FSunny.15 mph50%29.70 "Hg10 mi
7:35 pm86 °FSunny.15 mph49%29.71 "Hg10 mi
7:15 pm87 °FSunny.17 mph48%29.71 "Hg10 mi
6:50 pm86 °FSunny.15 mph49%29.71 "Hg10 mi
5:50 pm90 °FSunny.18 mph43%29.74 "Hg10 mi
4:50 pm90 °FSunny.22 mph41%29.75 "Hg10 mi
3:50 pm88 °FSunny.21 mph46%29.78 "Hg10 mi
2:50 pm88 °FSunny.21 mph43%29.82 "Hg10 mi
1:50 pm86 °FSunny.18 mph46%29.86 "Hg10 mi
12:50 pm84 °FSunny.17 mph43%29.88 "Hg10 mi
11:50 am82 °FSunny.15 mph40%29.90 "Hg10 mi
10:50 am82 °FSunny.15 mph32%29.93 "Hg10 mi
9:50 am81 °FSunny.16 mph32%29.94 "Hg10 mi
8:50 am75 °FSunny.10 mph47%29.94 "Hg10 mi
7:50 am72 °FSunny.8 mph53%29.94 "Hg10 mi
Weather by CustomWeather, © 2022

See weather overview